createdAt,value
2019-04-07T00:01:19.779Z,52.75
2019-04-07T00:03:46.588Z,45.73
2019-04-07T00:06:13.509Z,46.40
2019-04-07T00:08:40.177Z,57.05
2019-04-07T00:11:07.069Z,52.03
2019-04-07T00:13:33.843Z,53.63
2019-04-07T00:16:00.632Z,61.25
2019-04-07T00:18:27.207Z,59.48
2019-04-07T00:20:54.091Z,57.38
2019-04-07T00:23:21.364Z,57.65
2019-04-07T00:25:48.012Z,65.75
2019-04-07T00:28:14.768Z,69.12
2019-04-07T00:30:41.371Z,61.13
2019-04-07T00:33:08.034Z,70.05
2019-04-07T00:35:34.833Z,80.90
2019-04-07T00:38:02.188Z,75.37
2019-04-07T00:40:30.595Z,71.53
2019-04-07T00:42:58.208Z,81.97
2019-04-07T00:45:25.171Z,78.52
2019-04-07T00:47:52.552Z,81.75
2019-04-07T00:50:19.506Z,76.87
2019-04-07T00:52:46.474Z,72.67
2019-04-07T00:55:13.228Z,77.25
2019-04-07T00:57:40.681Z,84.28
2019-04-07T01:00:10.603Z,82.85
2019-04-07T01:02:37.602Z,83.80
2019-04-07T01:05:05.071Z,75.30
2019-04-07T01:07:31.911Z,79.35
2019-04-07T01:09:58.681Z,76.75
2019-04-07T01:12:25.682Z,79.25
2019-04-07T01:14:53.297Z,74.85
2019-04-07T01:17:21.567Z,73.70
2019-04-07T01:19:48.655Z,75.70
2019-04-07T01:22:15.528Z,76.10
2019-04-07T01:24:43.120Z,75.45
2019-04-07T01:27:10.468Z,65.15
2019-04-07T01:29:37.190Z,74.00
2019-04-07T01:32:03.986Z,69.55
2019-04-07T01:34:31.928Z,70.20
2019-04-07T01:36:58.724Z,65.80
2019-04-07T01:39:25.401Z,68.00
2019-04-07T01:42:17.955Z,72.58
2019-04-07T01:45:03.057Z,69.00
2019-04-07T01:47:44.762Z,71.35
2019-04-07T01:50:22.109Z,82.05
2019-04-07T01:52:54.581Z,75.37
2019-04-07T01:55:52.877Z,74.27
2019-04-07T01:58:30.820Z,77.27
2019-04-07T02:01:19.268Z,78.52
2019-04-07T02:04:06.025Z,85.10
2019-04-07T02:06:41.107Z,87.73
2019-04-07T02:09:19.453Z,82.20
2019-04-07T02:11:56.114Z,75.72
2019-04-07T02:14:39.470Z,84.35
2019-04-07T02:17:20.059Z,71.53
2019-04-07T02:19:53.924Z,71.40
2019-04-07T02:22:34.389Z,67.17
2019-04-07T02:25:09.757Z,73.78
2019-04-07T02:27:56.817Z,71.28
2019-04-07T02:30:41.963Z,66.77
2019-04-07T02:33:16.584Z,73.40
2019-04-07T02:36:17.170Z,66.10
2019-04-07T02:38:50.048Z,59.33
2019-04-07T02:41:42.257Z,58.35
2019-04-07T02:44:37.539Z,59.98
2019-04-07T02:47:10.241Z,68.57
2019-04-07T02:49:50.076Z,68.83
2019-04-07T02:52:45.348Z,69.62
2019-04-07T02:55:31.912Z,65.45
2019-04-07T02:58:21.514Z,68.78
2019-04-07T03:00:57.956Z,73.00
2019-04-07T03:03:46.549Z,70.62
2019-04-07T03:06:42.991Z,82.25
2019-04-07T03:09:15.396Z,67.97
2019-04-07T03:11:59.583Z,75.95
2019-04-07T03:14:52.948Z,81.12
2019-04-07T03:17:27.715Z,80.92
2019-04-07T03:20:05.497Z,103.55
2019-04-07T03:22:54.908Z,94.32
2019-04-07T03:25:31.111Z,98.12
2019-04-07T03:28:11.679Z,80.07
2019-04-07T03:30:49.430Z,67.67
2019-04-07T03:33:39.962Z,68.90
2019-04-07T03:36:18.634Z,51.77
2019-04-07T03:39:01.222Z,50.58
2019-04-07T03:41:37.448Z,52.83
2019-04-07T03:44:22.569Z,51.85
2019-04-07T03:47:07.202Z,49.00
2019-04-07T03:49:41.741Z,58.33
2019-04-07T03:52:14.077Z,55.00
2019-04-07T03:55:06.648Z,60.30
2019-04-07T03:57:58.976Z,53.75
2019-04-07T04:01:33.290Z,58.30
2019-04-07T04:04:24.926Z,63.85
2019-04-07T04:07:22.440Z,63.35
2019-04-07T04:09:47.683Z,68.40
2019-04-07T04:12:43.680Z,64.40
2019-04-07T04:15:36.463Z,70.55
2019-04-07T04:18:03.540Z,76.45
2019-04-07T04:20:30.377Z,85.25
2019-04-07T04:22:57.200Z,84.80
2019-04-07T04:25:24.508Z,92.27
2019-04-07T04:27:51.353Z,103.72
2019-04-07T04:30:18.968Z,111.42
2019-04-07T04:32:46.388Z,112.83
2019-04-07T04:35:13.307Z,111.62
2019-04-07T04:37:46.631Z,99.55
2019-04-07T04:40:09.397Z,98.17
2019-04-07T04:42:36.039Z,100.85
2019-04-07T04:45:04.243Z,91.92
2019-04-07T04:47:31.119Z,104.38
2019-04-07T04:49:57.903Z,85.55
2019-04-07T04:52:24.465Z,86.85
2019-04-07T04:54:51.839Z,83.33
2019-04-07T04:57:18.553Z,85.80
2019-04-07T04:59:45.239Z,89.13
2019-04-07T05:02:33.725Z,76.90
2019-04-07T05:05:00.582Z,82.75
2019-04-07T05:07:27.340Z,89.52
2019-04-07T05:09:55.736Z,86.55
2019-04-07T05:12:23.186Z,83.80
2019-04-07T05:14:50.331Z,77.97
2019-04-07T05:17:17.365Z,76.15
2019-04-07T05:19:44.361Z,72.92
2019-04-07T05:22:11.340Z,70.85
2019-04-07T05:24:37.976Z,72.65
2019-04-07T05:27:04.746Z,68.22
2019-04-07T05:29:31.333Z,64.90
2019-04-07T05:31:58.008Z,59.80
2019-04-07T05:34:24.602Z,57.10
2019-04-07T05:36:51.383Z,59.48
2019-04-07T05:39:17.964Z,65.20
2019-04-07T05:41:45.005Z,60.33
2019-04-07T05:44:12.347Z,59.60
2019-04-07T05:46:42.312Z,58.33
2019-04-07T05:49:07.691Z,50.40
2019-04-07T05:51:34.360Z,60.67
2019-04-07T05:54:01.355Z,55.10
2019-04-07T05:56:28.444Z,54.70
2019-04-07T05:58:55.110Z,55.15
2019-04-07T06:01:23.668Z,52.08
2019-04-07T06:03:51.128Z,53.50
2019-04-07T06:06:19.133Z,54.38
2019-04-07T06:08:47.788Z,51.80
2019-04-07T06:11:14.911Z,52.98
2019-04-07T06:13:43.876Z,52.45
2019-04-07T06:16:10.436Z,59.33
2019-04-07T06:18:37.853Z,54.55
2019-04-07T06:21:04.836Z,49.73
2019-04-07T06:23:31.595Z,49.25
2019-04-07T06:25:59.447Z,54.15
2019-04-07T06:28:26.863Z,46.70
2019-04-07T06:30:54.289Z,49.73
2019-04-07T06:33:21.013Z,47.20
2019-04-07T06:35:47.802Z,43.55
2019-04-07T06:38:14.575Z,40.65
2019-04-07T06:40:41.304Z,41.68
2019-04-07T06:43:07.880Z,37.78
2019-04-07T06:45:41.183Z,36.33
2019-04-07T06:48:09.209Z,40.12
2019-04-07T06:51:04.988Z,37.05
2019-04-07T06:54:02.616Z,37.00
2019-04-07T06:56:55.497Z,34.63
2019-04-07T06:59:51.356Z,35.10
2019-04-07T07:02:46.716Z,32.10
2019-04-07T07:05:28.954Z,31.10
2019-04-07T07:08:10.671Z,30.40
2019-04-07T07:10:57.353Z,34.18
2019-04-07T07:13:36.828Z,31.65
2019-04-07T07:16:11.455Z,31.87
2019-04-07T07:18:58.175Z,29.15
2019-04-07T07:21:52.268Z,27.37
2019-04-07T07:24:24.400Z,27.70
2019-04-07T07:26:47.931Z,28.65
2019-04-07T07:29:16.224Z,27.17
2019-04-07T07:31:43.610Z,27.62
2019-04-07T07:34:11.774Z,27.35
2019-04-07T07:36:38.636Z,27.95
2019-04-07T07:39:10.339Z,28.42
2019-04-07T07:41:35.618Z,25.15
2019-04-07T07:44:03.810Z,24.87
2019-04-07T07:46:30.990Z,25.37
2019-04-07T07:49:01.099Z,25.12
2019-04-07T07:51:26.766Z,26.57
2019-04-07T07:53:56.617Z,24.72
2019-04-07T07:56:22.336Z,23.92
2019-04-07T07:58:49.331Z,24.50
2019-04-07T08:01:17.759Z,23.75
2019-04-07T08:03:44.814Z,24.87
2019-04-07T08:06:11.835Z,23.62
2019-04-07T08:08:39.652Z,24.20
2019-04-07T08:11:06.759Z,24.00
2019-04-07T08:13:41.779Z,23.45
2019-04-07T08:16:02.157Z,22.00
2019-04-07T08:18:29.654Z,23.52
2019-04-07T08:20:56.763Z,23.20
2019-04-07T08:23:23.758Z,21.73
2019-04-07T08:25:52.909Z,22.25
2019-04-07T08:28:20.586Z,22.00
2019-04-07T08:30:47.750Z,21.27
2019-04-07T08:33:14.756Z,21.68
2019-04-07T08:35:41.499Z,21.33
2019-04-07T08:38:08.813Z,21.90
2019-04-07T08:40:36.830Z,21.55
2019-04-07T08:43:04.214Z,21.40
2019-04-07T08:45:32.686Z,21.65
2019-04-07T08:47:59.542Z,22.62
2019-04-07T08:50:28.539Z,22.50
2019-04-07T08:52:55.435Z,24.18
2019-04-07T08:55:22.569Z,23.00
2019-04-07T08:57:49.493Z,23.90
2019-04-07T09:00:20.285Z,22.82
2019-04-07T09:02:59.740Z,22.22
2019-04-07T09:05:16.281Z,22.40
2019-04-07T09:07:44.705Z,23.22
2019-04-07T09:10:18.716Z,22.02
2019-04-07T09:12:45.096Z,22.25
2019-04-07T09:15:16.886Z,24.40
2019-04-07T09:17:53.157Z,24.70
2019-04-07T09:20:41.105Z,23.20
2019-04-07T09:23:29.559Z,22.62
2019-04-07T09:26:28.295Z,23.18
2019-04-07T09:29:19.457Z,22.98
2019-04-07T09:31:51.968Z,22.98
2019-04-07T09:34:32.322Z,23.35
2019-04-07T09:37:27.315Z,23.52
2019-04-07T09:40:17.561Z,26.05
2019-04-07T09:43:05.458Z,24.90
2019-04-07T09:45:50.384Z,24.75
2019-04-07T09:48:24.389Z,25.43
2019-04-07T09:51:07.097Z,25.68
2019-04-07T09:53:48.780Z,25.65
2019-04-07T09:56:46.207Z,27.22
2019-04-07T09:59:35.463Z,25.45
2019-04-07T10:02:35.542Z,26.80
2019-04-07T10:05:22.120Z,27.58
2019-04-07T10:08:12.499Z,26.77
2019-04-07T10:13:34.894Z,27.52
2019-04-07T10:16:35.092Z,28.23
2019-04-07T10:19:13.059Z,27.37
2019-04-07T10:22:17.684Z,27.00
2019-04-07T10:24:51.740Z,27.73
2019-04-07T10:27:47.339Z,28.17
2019-04-07T10:30:33.384Z,26.12
2019-04-07T10:33:25.678Z,28.10
2019-04-07T10:36:07.974Z,30.27
2019-04-07T10:38:54.153Z,29.85
2019-04-07T10:41:46.481Z,29.50
2019-04-07T10:44:34.086Z,27.50
2019-04-07T10:47:23.554Z,29.18
2019-04-07T10:50:27.954Z,30.37
2019-04-07T10:53:15.969Z,28.87
2019-04-07T10:55:48.603Z,31.15
2019-04-07T10:58:37.894Z,31.95
2019-04-07T11:01:14.300Z,32.38
2019-04-07T11:03:54.005Z,31.77
2019-04-07T11:06:40.630Z,34.08
2019-04-07T11:09:26.640Z,32.33
2019-04-07T11:12:21.849Z,31.33
2019-04-07T11:14:57.429Z,31.15
2019-04-07T11:17:50.313Z,34.08
2019-04-07T11:20:37.371Z,32.95
2019-04-07T11:23:14.360Z,31.97
2019-04-07T11:25:51.259Z,33.75
2019-04-07T11:28:24.316Z,31.05
2019-04-07T11:31:00.477Z,34.38
2019-04-07T11:33:52.899Z,33.33
2019-04-07T11:36:48.634Z,34.83
2019-04-07T11:39:47.939Z,36.70
2019-04-07T11:42:35.059Z,34.83
2019-04-07T11:45:23.694Z,33.45
2019-04-07T11:48:00.546Z,35.63
2019-04-07T11:50:33.018Z,34.27
2019-04-07T11:53:05.373Z,34.92
2019-04-07T11:55:53.645Z,33.48
2019-04-07T11:58:34.465Z,34.75
2019-04-07T12:01:36.022Z,34.78
2019-04-07T12:04:27.388Z,33.33
2019-04-07T12:07:12.781Z,33.98
2019-04-07T12:10:05.463Z,31.82
2019-04-07T12:12:50.526Z,27.58
2019-04-07T12:15:46.281Z,27.80
2019-04-07T12:18:26.668Z,30.02
2019-04-07T12:21:22.625Z,28.05
2019-04-07T12:24:06.031Z,26.12
2019-04-07T12:26:51.845Z,27.35
2019-04-07T12:29:36.927Z,26.62
2019-04-07T12:32:14.998Z,26.20
2019-04-07T12:34:52.537Z,25.25
2019-04-07T12:37:58.988Z,23.70
2019-04-07T12:40:45.313Z,24.43
2019-04-07T12:43:23.355Z,23.85
2019-04-07T12:46:11.752Z,24.72
2019-04-07T12:48:56.577Z,24.30
2019-04-07T12:51:37.548Z,23.75
2019-04-07T12:54:23.321Z,23.45
2019-04-07T12:56:58.041Z,21.77
2019-04-07T12:59:47.771Z,23.50
2019-04-07T13:02:47.500Z,22.32
2019-04-07T13:05:35.608Z,22.90
2019-04-07T13:08:23.523Z,22.35
2019-04-07T13:10:56.654Z,23.35
2019-04-07T13:13:43.908Z,26.70
2019-04-07T13:16:29.514Z,25.17
2019-04-07T13:19:15.433Z,25.80
2019-04-07T13:22:20.451Z,24.45
2019-04-07T13:25:18.793Z,23.35
2019-04-07T13:28:04.253Z,25.37
2019-04-07T13:30:50.654Z,25.55
2019-04-07T13:33:36.006Z,21.97
2019-04-07T13:36:17.089Z,22.98
2019-04-07T13:38:52.410Z,29.05
2019-04-07T13:41:47.582Z,24.07
2019-04-07T13:44:31.907Z,24.12
2019-04-07T13:47:22.005Z,25.55
2019-04-07T13:52:37.157Z,26.87
2019-04-07T13:55:15.243Z,23.07
2019-04-07T13:58:02.600Z,23.60
2019-04-07T14:00:46.364Z,24.87
2019-04-07T14:03:41.807Z,25.62
2019-04-07T14:06:27.266Z,25.37
2019-04-07T14:09:27.168Z,24.10
2019-04-07T14:12:14.202Z,23.73
2019-04-07T14:15:00.964Z,27.65
2019-04-07T14:18:05.851Z,27.65
2019-04-07T14:21:00.979Z,28.02
2019-04-07T14:23:54.648Z,26.50
2019-04-07T14:26:47.837Z,22.95
2019-04-07T14:29:40.627Z,24.95
2019-04-07T14:32:19.248Z,25.48
2019-04-07T14:35:05.583Z,25.92
2019-04-07T14:37:44.415Z,27.67
2019-04-07T14:40:25.811Z,24.82
2019-04-07T14:43:08.175Z,24.15
2019-04-07T14:45:54.526Z,23.80
2019-04-07T14:48:29.418Z,25.23
2019-04-07T14:51:15.530Z,23.18
2019-04-07T14:54:11.171Z,26.82
2019-04-07T14:56:46.776Z,23.60
2019-04-07T14:59:34.012Z,25.32
2019-04-07T15:02:02.069Z,28.40
2019-04-07T15:04:43.032Z,23.45
2019-04-07T15:07:27.979Z,27.45
2019-04-07T15:09:59.859Z,24.80
2019-04-07T15:12:39.331Z,25.05
2019-04-07T15:15:09.921Z,28.57
2019-04-07T15:17:36.946Z,21.80
2019-04-07T15:20:04.683Z,23.67
2019-04-07T15:22:32.170Z,26.85
2019-04-07T15:24:59.360Z,26.00
2019-04-07T15:27:27.286Z,27.93
2019-04-07T15:29:54.169Z,30.35
2019-04-07T15:32:24.199Z,29.85
2019-04-07T15:34:49.671Z,27.90
2019-04-07T15:37:19.356Z,27.95
2019-04-07T15:39:45.855Z,26.85
2019-04-07T15:42:15.276Z,27.00
2019-04-07T15:44:42.737Z,30.20
2019-04-07T15:47:11.310Z,28.70
2019-04-07T15:49:38.760Z,26.75
2019-04-07T15:52:08.217Z,28.42
2019-04-07T15:54:35.047Z,29.23
2019-04-07T15:57:02.523Z,29.60
2019-04-07T15:59:30.283Z,30.02
2019-04-07T16:01:57.378Z,30.55
2019-04-07T16:04:28.255Z,31.60
2019-04-07T16:06:52.953Z,32.40
2019-04-07T16:09:31.447Z,27.80
2019-04-07T16:11:49.582Z,29.48
2019-04-07T16:14:17.600Z,30.05
2019-04-07T16:16:45.059Z,31.50
2019-04-07T16:19:17.765Z,33.42
2019-04-07T16:21:42.174Z,30.20
2019-04-07T16:24:09.508Z,28.50
2019-04-07T16:26:37.385Z,30.00
2019-04-07T16:29:05.047Z,29.07
2019-04-07T16:31:32.229Z,28.20
2019-04-07T16:33:59.172Z,30.60
2019-04-07T16:36:26.656Z,31.23
2019-04-07T16:38:54.870Z,29.23
2019-04-07T16:41:22.346Z,29.00
2019-04-07T16:43:49.421Z,28.47
2019-04-07T16:46:20.425Z,33.15
2019-04-07T16:48:45.124Z,31.93
2019-04-07T16:51:11.959Z,32.23
2019-04-07T16:53:41.726Z,39.18
2019-04-07T16:56:07.537Z,33.23
2019-04-07T16:58:37.664Z,33.78
2019-04-07T17:01:03.145Z,34.60
2019-04-07T17:03:29.755Z,34.88
2019-04-07T17:05:59.306Z,37.35
2019-04-07T17:08:26.696Z,34.55
2019-04-07T17:10:53.925Z,37.45
2019-04-07T17:13:30.593Z,36.48
2019-04-07T17:15:51.970Z,45.08
2019-04-07T17:18:41.085Z,38.10
2019-04-07T17:21:14.418Z,40.25
2019-04-07T17:23:42.808Z,38.05
2019-04-07T17:26:10.009Z,39.20
2019-04-07T17:28:37.735Z,39.60
2019-04-07T17:31:05.866Z,40.08
2019-04-07T17:33:36.821Z,38.45
2019-04-07T17:36:02.432Z,36.53
2019-04-07T17:38:49.863Z,40.10
2019-04-07T17:41:18.401Z,39.13
2019-04-07T17:44:00.943Z,37.13
2019-04-07T17:46:58.452Z,38.13
2019-04-07T17:49:42.794Z,41.13
2019-04-07T17:52:31.941Z,40.30
2019-04-07T17:55:14.642Z,37.67
2019-04-07T17:58:07.233Z,38.33
2019-04-07T18:00:43.332Z,39.03
2019-04-07T18:03:19.508Z,43.90
2019-04-07T18:06:00.399Z,39.33
2019-04-07T18:08:45.966Z,42.58
2019-04-07T18:11:28.951Z,43.48
2019-04-07T18:14:04.317Z,45.80
2019-04-07T18:16:48.942Z,44.18
2019-04-07T18:19:33.728Z,40.63
2019-04-07T18:22:22.717Z,41.25
2019-04-07T18:24:55.086Z,42.33
2019-04-07T18:27:38.908Z,42.85
2019-04-07T18:30:29.836Z,43.20
2019-04-07T18:33:25.070Z,40.92
2019-04-07T18:36:03.196Z,41.65
2019-04-07T18:38:51.554Z,43.00
2019-04-07T18:41:41.362Z,43.40
2019-04-07T18:44:22.844Z,45.27
2019-04-07T18:47:08.037Z,43.05
2019-04-07T18:50:05.511Z,42.58
2019-04-07T18:53:07.171Z,44.38
2019-04-07T18:55:50.393Z,45.15
2019-04-07T18:58:37.000Z,42.17
2019-04-07T19:01:22.281Z,42.93
2019-04-07T19:04:04.639Z,42.08
2019-04-07T19:06:48.803Z,46.33
2019-04-07T19:10:05.040Z,44.00
2019-04-07T19:12:47.676Z,40.15
2019-04-07T19:15:45.386Z,43.80
2019-04-07T19:18:20.543Z,42.90
2019-04-07T19:21:10.314Z,42.00
2019-04-07T19:23:52.717Z,44.38
2019-04-07T19:26:39.107Z,44.85
2019-04-07T19:29:19.608Z,43.02
2019-04-07T19:32:22.404Z,47.05
2019-04-07T19:34:57.185Z,39.80
2019-04-07T19:37:44.299Z,42.35
2019-04-07T19:40:33.663Z,43.23
2019-04-07T19:43:17.247Z,42.17
2019-04-07T19:45:57.059Z,42.20
2019-04-07T19:48:40.559Z,39.35
2019-04-07T19:51:28.299Z,38.75
2019-04-07T19:54:17.704Z,43.08
2019-04-07T19:57:02.567Z,44.03
2019-04-07T19:59:49.058Z,46.77
2019-04-07T20:02:24.091Z,43.73
2019-04-07T20:05:19.672Z,42.48
2019-04-07T20:08:09.883Z,40.38
2019-04-07T20:10:55.809Z,42.50
2019-04-07T20:13:42.466Z,46.20
2019-04-07T20:16:26.245Z,42.30
2019-04-07T20:19:16.581Z,44.20
2019-04-07T20:21:58.204Z,38.20
2019-04-07T20:24:46.410Z,44.85
2019-04-07T20:27:31.853Z,45.40
2019-04-07T20:30:13.484Z,43.80
2019-04-07T20:33:01.978Z,43.67
2019-04-07T20:35:35.716Z,42.25
2019-04-07T20:38:12.459Z,45.55
2019-04-07T20:40:48.227Z,40.55
2019-04-07T20:43:23.426Z,42.30
2019-04-07T20:46:08.833Z,41.98
2019-04-07T20:48:58.119Z,41.73
2019-04-07T20:51:47.956Z,42.27
2019-04-07T20:54:42.220Z,45.20
2019-04-07T20:57:28.648Z,44.95
2019-04-07T21:00:06.572Z,42.15
2019-04-07T21:02:49.870Z,43.28
2019-04-07T21:05:49.033Z,44.45
2019-04-07T21:08:23.303Z,45.35
2019-04-07T21:10:58.078Z,39.25
2019-04-07T21:13:34.236Z,46.35
2019-04-07T21:16:29.549Z,44.65
2019-04-07T21:19:11.242Z,41.35
2019-04-07T21:21:55.908Z,46.77
2019-04-07T21:24:45.545Z,44.40
2019-04-07T21:27:33.895Z,44.27
2019-04-07T21:30:27.525Z,45.15
2019-04-07T21:33:05.886Z,47.25
2019-04-07T21:35:42.650Z,45.98
2019-04-07T21:38:21.835Z,51.23
2019-04-07T21:40:53.357Z,57.08
2019-04-07T21:43:34.929Z,53.58
2019-04-07T21:46:23.504Z,57.67
2019-04-07T21:49:08.226Z,59.08
2019-04-07T21:51:50.371Z,65.03
2019-04-07T21:54:37.895Z,54.20
2019-04-07T21:57:19.302Z,50.85
2019-04-07T21:59:53.010Z,49.95
2019-04-07T22:02:47.079Z,52.27
2019-04-07T22:05:33.253Z,47.23
2019-04-07T22:08:12.901Z,51.63
2019-04-07T22:10:36.066Z,49.20
2019-04-07T22:13:04.948Z,49.53
2019-04-07T22:15:44.711Z,51.68
2019-04-07T22:18:00.417Z,48.60
2019-04-07T22:20:27.878Z,50.80
2019-04-07T22:22:59.793Z,51.10
2019-04-07T22:25:30.280Z,47.23
2019-04-07T22:27:57.582Z,49.10
2019-04-07T22:30:24.405Z,57.88
2019-04-07T22:32:52.805Z,47.80
2019-04-07T22:35:20.989Z,59.18
2019-04-07T22:37:49.682Z,55.55
2019-04-07T22:40:19.218Z,50.40
2019-04-07T22:42:47.830Z,52.27
2019-04-07T22:45:15.060Z,53.58
2019-04-07T22:47:41.827Z,51.35
2019-04-07T22:50:09.525Z,58.52
2019-04-07T22:52:36.400Z,54.25
2019-04-07T22:55:07.069Z,50.03
2019-04-07T22:57:33.316Z,52.50
2019-04-07T22:59:59.971Z,49.53
2019-04-07T23:02:27.629Z,49.93
2019-04-07T23:04:54.510Z,55.45
2019-04-07T23:07:21.321Z,51.95
2019-04-07T23:09:48.014Z,51.53
2019-04-07T23:12:14.804Z,60.00
2019-04-07T23:14:42.152Z,59.42
2019-04-07T23:17:09.964Z,58.68
2019-04-07T23:19:36.762Z,57.98
2019-04-07T23:22:03.798Z,64.55
2019-04-07T23:24:32.685Z,56.35
2019-04-07T23:26:59.358Z,60.85
2019-04-07T23:29:26.235Z,60.65
2019-04-07T23:31:53.496Z,62.98
2019-04-07T23:34:21.118Z,59.50
2019-04-07T23:36:48.099Z,60.00
2019-04-07T23:39:15.262Z,68.47
2019-04-07T23:41:42.085Z,59.63
2019-04-07T23:44:09.414Z,58.58
2019-04-07T23:46:36.400Z,62.80
2019-04-07T23:49:03.646Z,63.00
2019-04-07T23:51:30.872Z,60.98
2019-04-07T23:54:09.014Z,68.55
2019-04-07T23:56:36.774Z,62.78
2019-04-07T23:59:04.475Z,67.08
